Time;durP1;ratioP1;P1;durP2;ratioP2;P2;SDS_P1;SDS_P2;PMS_P1;PMS_P2;Temp;Humidity;BMP_temperature;BMP_pressure;BME280_temperature;BME280_humidity;BME280_pressure;Samples;Min_cycle;Max_cycle;Signal;HPM_P1;HPM_P2
2022/05/31 00:02:23;;;;;;;3.20;2.38;;;;;;;19.60;53.58;93913.13;4975012;28;20505;-76
2022/05/31 00:04:49;;;;;;;6.10;2.75;;;;;;;19.54;53.65;93906.53;4983534;28;20018;-76
2022/05/31 00:07:14;;;;;;;9.65;3.10;;;;;;;19.48;54.28;93901.81;4982883;28;21570;-76
2022/05/31 00:09:40;;;;;;;13.85;3.78;;;;;;;19.50;54.13;93902.25;4981458;28;20082;-77
2022/05/31 00:12:06;;;;;;;10.30;3.70;;;;;;;19.48;53.90;93902.59;4981126;28;20030;-76
2022/05/31 00:14:32;;;;;;;5.97;3.63;;;;;;;19.45;53.83;93887.16;4979040;28;20055;-76
2022/05/31 00:17:00;;;;;;;7.13;2.60;;;;;;;19.47;53.79;93889.47;4980964;28;20041;-77
2022/05/31 00:19:26;;;;;;;6.65;3.15;;;;;;;19.54;53.51;93897.66;4982348;28;20033;-77
2022/05/31 00:22:09;;;;;;;5.20;2.80;;;;;;;19.53;53.33;93899.56;4972819;28;20039;-76
2022/05/31 00:24:35;;;;;;;3.75;2.08;;;;;;;19.36;53.83;93886.59;4979558;28;20042;-76
2022/05/31 00:27:03;;;;;;;6.13;2.53;;;;;;;19.37;53.53;93887.38;4974639;28;20592;-76
2022/05/31 00:29:28;;;;;;;6.18;2.83;;;;;;;19.48;53.43;93902.59;4980853;28;20416;-77
2022/05/31 00:31:54;;;;;;;4.25;2.92;;;;;;;19.16;53.61;93863.66;4982961;28;20030;-78
2022/05/31 00:34:19;;;;;;;5.28;2.80;;;;;;;19.33;53.56;93893.53;4983624;28;20358;-77
2022/05/31 00:36:47;;;;;;;7.55;4.28;;;;;;;19.35;53.92;93898.56;4983906;28;20939;-76
2022/05/31 00:39:13;;;;;;;7.22;3.47;;;;;;;19.28;53.88;93903.84;4981026;28;20104;-77
2022/05/31 00:41:39;;;;;;;5.78;3.15;;;;;;;19.29;53.95;93897.31;4981415;28;20030;-77
2022/05/31 00:44:15;;;;;;;6.45;3.00;;;;;;;19.23;53.65;93880.69;4980285;28;20030;-77
2022/05/31 00:47:25;;;;;;;3.08;2.33;;;;;;;19.35;53.75;93903.94;4983816;28;20468;-76
2022/05/31 00:49:58;;;;;;;2.83;2.50;;;;;;;19.26;53.72;93889.97;4984646;28;20057;-77
2022/05/31 00:52:28;;;;;;;4.65;2.17;;;;;;;19.37;53.53;93900.88;4982108;28;20037;-77
2022/05/31 00:55:04;;;;;;;3.03;2.45;;;;;;;19.19;53.68;93896.03;4980934;28;20042;-77
2022/05/31 00:57:33;;;;;;;14.85;3.05;;;;;;;19.04;54.17;93894.28;4985542;28;20334;-76
2022/05/31 01:00:05;;;;;;;6.45;2.95;;;;;;;19.17;54.33;93902.91;4979790;28;20458;-77
2022/05/31 01:02:31;;;;;;;4.47;2.47;;;;;;;19.15;54.10;93894.44;4980351;28;20034;-76
2022/05/31 01:05:00;;;;;;;6.10;3.05;;;;;;;19.25;53.82;93912.69;4981096;28;20030;-76
2022/05/31 01:07:26;;;;;;;3.15;2.47;;;;;;;19.24;53.81;93909.19;4982027;28;20021;-77
2022/05/31 01:09:52;;;;;;;7.53;3.03;;;;;;;19.18;53.87;93891.78;4974695;28;20516;-76
2022/05/31 01:12:19;;;;;;;6.00;2.60;;;;;;;19.18;53.81;93899.09;4975084;28;20061;-77
2022/05/31 01:14:45;;;;;;;4.93;2.70;;;;;;;19.32;53.41;93912.75;4981491;28;20084;-76
2022/05/31 01:17:16;;;;;;;4.85;2.63;;;;;;;19.16;53.14;93896.78;4988331;28;20121;-76
2022/05/31 01:20:00;;;;;;;4.03;2.78;;;;;;;19.31;53.17;93914.66;4988505;28;20028;-77
2022/05/31 01:22:43;;;;;;;3.63;2.55;;;;;;;19.25;53.57;93920.75;4985776;28;20125;-77
2022/05/31 01:25:42;;;;;;;5.00;2.60;;;;;;;18.86;53.38;93867.09;4987124;28;20049;-76
2022/05/31 01:28:29;;;;;;;4.43;2.83;;;;;;;19.22;53.10;93916.09;4978981;28;20064;-77
2022/05/31 01:31:17;;;;;;;5.63;2.88;;;;;;;19.21;53.37;93919.94;4985754;28;20041;-77
2022/05/31 01:33:57;;;;;;;5.55;3.20;;;;;;;19.11;53.29;93912.47;4989010;28;20042;-76
2022/05/31 01:36:37;;;;;;;2.90;2.40;;;;;;;19.14;53.77;93919.84;4985178;28;20031;-77
2022/05/31 01:39:10;;;;;;;5.57;3.05;;;;;;;19.04;53.33;93898.91;4988529;28;20085;-77
2022/05/31 01:41:46;;;;;;;3.75;2.42;;;;;;;19.07;53.79;93914.31;4985358;28;20151;-77
2022/05/31 01:44:15;;;;;;;7.75;2.83;;;;;;;18.96;53.84;93898.03;4984958;28;20038;-77
2022/05/31 01:46:41;;;;;;;4.55;3.05;;;;;;;18.97;53.93;93901.50;4984707;28;20038;-77
2022/05/31 01:49:12;;;;;;;4.43;2.83;;;;;;;18.99;54.08;93912.69;4986114;28;20065;-77
2022/05/31 01:51:40;;;;;;;3.40;2.45;;;;;;;18.97;54.24;93914.97;4983977;28;20031;-76
2022/05/31 01:54:08;;;;;;;3.65;2.30;;;;;;;18.93;54.21;93908.75;4985302;28;20042;-77
2022/05/31 01:56:35;;;;;;;5.05;3.60;;;;;;;18.96;54.20;93902.63;4983823;28;20784;-78
2022/05/31 01:59:03;;;;;;;5.57;2.75;;;;;;;18.95;53.87;93901.09;4988914;28;20081;-77
2022/05/31 02:01:31;;;;;;;2.40;2.20;;;;;;;18.94;53.86;93911.06;4985990;28;20576;-77
2022/05/31 02:03:57;;;;;;;6.22;3.05;;;;;;;18.81;54.08;93899.75;4986401;28;20035;-76
2022/05/31 02:06:30;;;;;;;4.45;2.92;;;;;;;18.72;54.36;93896.53;4985812;28;20037;-77
2022/05/31 02:08:56;;;;;;;4.47;2.60;;;;;;;18.64;54.55;93896.72;4983237;28;20030;-77
2022/05/31 02:11:22;;;;;;;4.55;2.38;;;;;;;18.78;54.48;93907.75;4984122;28;20045;-78
2022/05/31 02:13:48;;;;;;;6.22;2.83;;;;;;;18.81;54.24;93897.06;4984327;28;20034;-77
2022/05/31 02:16:14;;;;;;;5.18;2.60;;;;;;;18.81;54.34;93910.53;4984500;28;22809;-77
2022/05/31 02:21:23;;;;;;;5.20;2.67;;;;;;;18.76;54.37;93913.53;4984078;28;20045;-77
2022/05/31 02:23:49;;;;;;;6.18;3.42;;;;;;;18.72;54.45;93915.38;4984734;28;20026;-77
2022/05/31 02:26:15;;;;;;;3.75;2.55;;;;;;;18.69;54.12;93905.28;4988362;28;20042;-76
2022/05/31 02:28:41;;;;;;;4.90;2.55;;;;;;;18.71;54.29;93919.22;4987884;28;20684;-77
2022/05/31 02:31:06;;;;;;;3.20;2.30;;;;;;;18.66;54.55;93906.03;4988885;28;20035;-77
2022/05/31 02:33:32;;;;;;;3.10;2.17;;;;;;;18.64;54.40;93910.97;4986387;28;20034;-77
2022/05/31 02:35:58;;;;;;;5.75;3.20;;;;;;;18.48;54.35;93896.88;4982718;28;20539;-77
2022/05/31 02:38:23;;;;;;;5.85;3.42;;;;;;;18.68;54.46;93922.59;4985987;28;20038;-76
2022/05/31 02:40:49;;;;;;;5.55;2.55;;;;;;;18.63;54.38;93922.88;4988225;28;20405;-78
2022/05/31 02:43:14;;;;;;;3.58;2.67;;;;;;;18.52;54.46;93905.81;4985024;28;20041;-77
2022/05/31 02:45:39;;;;;;;3.67;2.72;;;;;;;18.64;54.38;93923.66;4986971;28;20043;-77
2022/05/31 02:48:05;;;;;;;2.97;2.17;;;;;;;18.55;54.43;93921.22;4987646;28;20085;-77
2022/05/31 02:50:30;;;;;;;5.32;2.50;;;;;;;18.45;54.67;93911.06;4987190;28;20600;-78
2022/05/31 02:52:56;;;;;;;3.75;2.67;;;;;;;18.44;54.78;93904.88;4987377;28;20514;-78
2022/05/31 02:55:21;;;;;;;4.40;2.78;;;;;;;18.63;54.54;93933.66;4985247;28;20030;-77
2022/05/31 02:57:47;;;;;;;6.65;2.72;;;;;;;18.57;54.60;93932.44;4985446;28;20038;-76
2022/05/31 03:00:14;;;;;;;4.38;2.58;;;;;;;18.52;54.70;93938.13;4982394;28;20453;-77
2022/05/31 03:02:40;;;;;;;6.47;2.85;;;;;;;18.54;54.59;93940.44;4978516;28;20088;-77
2022/05/31 03:05:06;;;;;;;6.78;3.22;;;;;;;18.43;54.83;93934.88;4978689;28;20033;-76
2022/05/31 03:07:32;;;;;;;3.50;2.70;;;;;;;18.42;54.98;93933.34;4981308;28;20099;-76
2022/05/31 03:09:57;;;;;;;3.25;2.28;;;;;;;18.35;55.19;93933.19;4989161;28;20089;-76
2022/05/31 03:12:25;;;;;;;4.30;3.03;;;;;;;18.30;55.67;93936.97;4987096;28;20134;-77
2022/05/31 03:14:53;;;;;;;5.05;3.15;;;;;;;18.31;55.79;93945.81;4984959;28;20042;-77
2022/05/31 03:17:34;;;;;;;17.35;3.53;;;;;;;18.37;55.57;93949.78;4972471;28;20038;-76
2022/05/31 03:20:08;;;;;;;4.63;2.50;;;;;;;18.00;55.67;93895.66;4986573;28;20033;-77
2022/05/31 03:22:45;;;;;;;7.28;3.10;;;;;;;18.36;55.96;93954.38;4985685;28;20369;-77
2022/05/31 03:25:25;;;;;;;6.85;2.70;;;;;;;18.20;55.81;93917.94;4985575;28;20027;-77
2022/05/31 03:27:54;;;;;;;5.35;2.30;;;;;;;18.40;56.03;93951.75;4980766;28;20507;-77
2022/05/31 03:30:20;;;;;;;5.18;2.65;;;;;;;18.41;56.38;93956.00;4965626;28;20039;-77
2022/05/31 03:32:46;;;;;;;4.00;3.08;;;;;;;18.10;56.45;93918.53;4967035;28;20043;-76
2022/05/31 03:35:12;;;;;;;7.15;2.92;;;;;;;18.30;56.15;93939.66;4985022;28;20144;-77
2022/05/31 03:37:38;;;;;;;4.35;3.38;;;;;;;18.49;56.12;93952.28;4983182;28;20022;-76
2022/05/31 03:40:05;;;;;;;6.75;3.13;;;;;;;18.42;56.37;93939.50;4983715;28;20129;-77
2022/05/31 03:42:30;;;;;;;5.07;3.30;;;;;;;18.68;56.13;93972.97;4983839;28;20124;-77
2022/05/31 03:44:56;;;;;;;5.85;3.38;;;;;;;18.59;56.66;93973.22;4986910;28;20044;-77
2022/05/31 03:47:21;;;;;;;5.60;3.10;;;;;;;18.51;56.13;93941.16;4982843;28;20043;-76
2022/05/31 03:49:46;;;;;;;7.57;3.03;;;;;;;18.53;56.00;93945.03;4984225;28;20025;-77
2022/05/31 03:52:13;;;;;;;7.07;3.42;;;;;;;18.56;56.58;93973.97;4984044;28;20034;-76
2022/05/31 03:54:38;;;;;;;5.88;3.33;;;;;;;18.42;56.83;93957.56;4984321;28;20037;-76
2022/05/31 03:57:05;;;;;;;5.78;3.53;;;;;;;18.28;57.01;93939.25;4985449;28;20687;-76
2022/05/31 03:59:37;;;;;;;6.57;3.25;;;;;;;18.65;56.88;93977.19;4986288;28;20039;-76
2022/05/31 04:02:05;;;;;;;7.95;3.85;;;;;;;18.67;56.89;93972.22;4983185;28;20128;-77
2022/05/31 04:04:30;;;;;;;6.57;3.60;;;;;;;18.76;56.63;93978.19;4986177;28;20025;-75
2022/05/31 04:06:55;;;;;;;10.07;4.45;;;;;;;18.81;56.71;93971.72;4985141;28;20025;-76
2022/05/31 04:09:21;;;;;;;8.32;3.72;;;;;;;18.78;56.92;93980.50;4983313;28;20046;-77
2022/05/31 04:11:46;;;;;;;7.95;4.55;;;;;;;18.87;56.81;93971.03;4980910;28;20544;-76
2022/05/31 04:14:12;;;;;;;4.95;3.75;;;;;;;18.85;57.02;93970.63;4978187;28;20050;-77
2022/05/31 04:16:37;;;;;;;6.72;4.32;;;;;;;18.86;57.15;93958.72;4981367;28;20034;-77
2022/05/31 04:19:03;;;;;;;9.60;4.25;;;;;;;18.67;58.04;93972.22;4983926;28;20072;-77
2022/05/31 04:21:29;;;;;;;9.75;4.18;;;;;;;18.82;57.91;93968.63;4982187;28;20512;-77
2022/05/31 04:24:08;;;;;;;4.53;3.58;;;;;;;18.89;57.12;93979.53;4979259;28;20046;-76
2022/05/31 04:26:40;;;;;;;9.50;4.22;;;;;;;18.99;57.51;93993.53;4977070;28;20389;-77
2022/05/31 04:29:05;;;;;;;6.18;4.85;;;;;;;18.94;57.52;93975.75;4980520;28;20038;-77
2022/05/31 04:31:30;;;;;;;6.60;3.97;;;;;;;19.08;57.26;93991.38;4985994;28;20543;-77
2022/05/31 04:33:56;;;;;;;6.93;4.55;;;;;;;19.05;57.88;93986.72;4982244;28;20066;-76
2022/05/31 04:36:22;;;;;;;8.93;5.70;;;;;;;19.07;57.72;93979.03;4987762;28;20030;-76
2022/05/31 04:38:47;;;;;;;12.07;5.40;;;;;;;19.23;57.61;93990.44;4983784;28;20038;-77
2022/05/31 04:41:24;;;;;;;5.68;4.40;;;;;;;19.32;56.59;93990.94;4982236;28;20056;-76
2022/05/31 04:43:55;;;;;;;7.70;4.20;;;;;;;19.46;56.13;93996.56;4985012;28;20100;-77
2022/05/31 04:46:24;;;;;;;6.65;3.92;;;;;;;19.50;56.29;93999.34;4983757;28;20026;-76
2022/05/31 04:48:51;;;;;;;8.57;4.40;;;;;;;19.60;55.72;93990.63;4969501;28;20083;-76
2022/05/31 04:51:17;;;;;;;10.02;4.47;;;;;;;19.63;55.65;94006.84;4952327;28;20038;-76
2022/05/31 04:53:43;;;;;;;6.95;3.95;;;;;;;19.65;55.99;94014.59;4953962;28;20035;-76
2022/05/31 04:56:11;;;;;;;8.43;4.20;;;;;;;19.55;55.88;93999.81;4955250;28;20031;-76
2022/05/31 04:58:37;;;;;;;5.55;4.30;;;;;;;19.51;55.92;93992.78;4954298;28;20104;-77
2022/05/31 05:01:06;;;;;;;4.80;3.63;;;;;;;19.59;55.73;93984.44;4955041;28;20501;-77
2022/05/31 05:03:33;;;;;;;6.53;4.43;;;;;;;19.80;55.06;94008.19;4959645;28;20040;-77
2022/05/31 05:06:03;;;;;;;6.45;3.88;;;;;;;19.68;54.64;94003.03;4965110;28;20112;-77
2022/05/31 05:08:29;;;;;;;6.10;3.42;;;;;;;19.62;54.05;94005.28;4983030;28;20109;-76
2022/05/31 05:10:55;;;;;;;7.22;3.78;;;;;;;19.62;54.73;94009.91;4984295;28;20545;-77
2022/05/31 05:13:21;;;;;;;5.97;3.63;;;;;;;19.60;54.90;94004.84;4982336;28;20019;-77
2022/05/31 05:15:47;;;;;;;9.60;3.42;;;;;;;19.50;55.47;93997.44;4982383;28;20085;-77
2022/05/31 05:18:12;;;;;;;7.47;4.38;;;;;;;19.45;56.22;93994.25;4982447;28;20149;-77
2022/05/31 05:20:39;;;;;;;6.57;3.20;;;;;;;19.70;55.02;94011.56;4980597;28;20038;-76
2022/05/31 05:23:06;;;;;;;7.38;3.47;;;;;;;19.34;55.52;93999.47;4975908;28;20706;-76
2022/05/31 05:25:32;;;;;;;7.13;3.55;;;;;;;19.51;55.63;94001.66;4985033;28;20381;-77
2022/05/31 05:27:57;;;;;;;7.15;4.00;;;;;;;19.81;55.97;94012.47;4985715;28;20045;-77
2022/05/31 05:30:40;;;;;;;7.55;3.75;;;;;;;19.75;54.06;93986.94;4985464;28;20043;-76
2022/05/31 05:33:07;;;;;;;4.30;3.05;;;;;;;20.00;52.92;93992.63;4984929;28;20058;-76
2022/05/31 05:35:33;;;;;;;6.47;3.10;;;;;;;20.04;53.67;94004.28;4977237;28;20741;-77
2022/05/31 05:38:02;;;;;;;8.82;3.78;;;;;;;20.20;53.00;94004.84;4983180;28;20046;-76
2022/05/31 05:40:27;;;;;;;7.30;3.20;;;;;;;20.12;53.74;94014.00;4981664;28;20725;-77
2022/05/31 05:42:53;;;;;;;7.82;4.30;;;;;;;19.90;53.94;94025.66;4983013;28;20504;-76
2022/05/31 05:45:18;;;;;;;7.07;3.05;;;;;;;19.94;55.02;94021.13;4984403;28;20520;-77
2022/05/31 05:47:45;;;;;;;6.45;3.90;;;;;;;20.24;53.55;94018.41;4985022;28;20646;-77
2022/05/31 05:50:11;;;;;;;10.63;3.67;;;;;;;20.48;52.30;94021.38;4984166;28;20088;-77
2022/05/31 05:52:38;;;;;;;5.03;3.13;;;;;;;20.13;53.79;94032.53;4980272;28;20032;-76
2022/05/31 05:55:04;;;;;;;4.40;3.00;;;;;;;20.29;53.45;94010.00;4980878;28;20252;-76
2022/05/31 05:57:29;;;;;;;7.18;3.63;;;;;;;20.41;52.78;94024.00;4986064;28;20421;-77
2022/05/31 05:59:55;;;;;;;4.78;3.40;;;;;;;20.15;53.47;94027.53;4982567;28;20043;-77
2022/05/31 06:02:31;;;;;;;4.28;3.53;;;;;;;19.85;53.66;94017.94;4982120;28;20489;-76
2022/05/31 06:05:17;;;;;;;10.48;3.75;;;;;;;20.06;53.13;94028.97;4983809;28;20026;-76
2022/05/31 06:07:55;;;;;;;7.00;3.38;;;;;;;20.41;52.96;94024.00;5000150;28;20498;-76
2022/05/31 06:10:24;;;;;;;10.50;3.50;;;;;;;20.25;53.76;94030.75;4986756;28;20125;-76
2022/05/31 06:12:57;;;;;;;6.07;3.80;;;;;;;20.28;54.08;94035.44;4986195;28;20033;-76
2022/05/31 06:15:28;;;;;;;9.10;3.50;;;;;;;20.15;53.45;94026.75;4985756;28;20074;-77
2022/05/31 06:17:58;;;;;;;6.97;3.80;;;;;;;20.48;53.61;94021.38;4983898;28;20034;-77
2022/05/31 06:20:24;;;;;;;5.35;3.58;;;;;;;20.78;52.31;94020.50;4983725;28;20062;-77
2022/05/31 06:22:50;;;;;;;8.65;3.72;;;;;;;20.94;52.16;94018.34;4989062;28;20452;-76
2022/05/31 06:25:20;;;;;;;6.95;3.90;;;;;;;20.47;52.18;94027.94;4967533;28;20163;-75
2022/05/31 06:27:46;;;;;;;9.50;4.72;;;;;;;20.86;50.94;94011.31;4980568;28;20038;-77
2022/05/31 06:30:12;;;;;;;5.47;3.40;;;;;;;21.02;50.55;94006.47;4981238;28;20047;-77
2022/05/31 06:32:37;;;;;;;11.25;4.20;;;;;;;20.50;52.18;94010.97;4983687;28;20187;-76
2022/05/31 06:35:03;;;;;;;6.50;4.10;;;;;;;20.77;52.11;93987.31;4983157;28;20121;-75
2022/05/31 06:37:31;;;;;;;4.60;3.97;;;;;;;20.84;52.33;94035.22;4985581;28;20023;-76
2022/05/31 06:39:57;;;;;;;6.78;3.78;;;;;;;20.75;53.09;94029.34;4984569;28;20608;-76
2022/05/31 06:42:23;;;;;;;9.18;3.92;;;;;;;20.31;53.00;94013.88;4986269;28;20124;-76
2022/05/31 06:44:48;;;;;;;4.78;3.45;;;;;;;20.44;53.12;94007.06;4971021;28;20149;-76
2022/05/31 06:47:13;;;;;;;8.07;4.28;;;;;;;20.77;52.60;94014.34;4955560;28;20042;-76
2022/05/31 06:49:39;;;;;;;11.63;4.53;;;;;;;20.99;51.60;93993.69;4955517;28;20023;-76
2022/05/31 06:57:39;;;;;;;7.00;4.57;;;;;;;21.75;49.29;94001.97;4956871;28;20958;-76
2022/05/31 07:00:06;;;;;;;4.55;3.45;;;;;;;21.99;49.68;94016.75;4954899;28;20037;-76
2022/05/31 07:02:33;;;;;;;12.57;4.00;;;;;;;21.96;49.71;93996.63;4953540;28;20097;-76
2022/05/31 07:04:58;;;;;;;7.88;4.45;;;;;;;21.97;49.59;94014.44;4954321;28;20042;-75
2022/05/31 07:07:24;;;;;;;4.22;3.65;;;;;;;21.86;49.72;94025.19;4957277;28;20018;-76
2022/05/31 07:09:49;;;;;;;7.30;4.10;;;;;;;22.06;48.33;94022.19;4955317;28;20035;-76
2022/05/31 07:12:15;;;;;;;7.15;4.50;;;;;;;22.09;48.54;94011.41;4955345;28;20679;-76
2022/05/31 07:14:40;;;;;;;6.45;3.60;;;;;;;22.19;48.66;94015.31;4953239;28;20090;-76
2022/05/31 07:17:05;;;;;;;8.98;4.82;;;;;;;21.96;49.07;93991.22;4952662;28;20074;-77
2022/05/31 07:19:31;;;;;;;9.00;4.80;;;;;;;21.65;50.73;94024.31;4959114;28;20045;-77
2022/05/31 07:21:58;;;;;;;9.88;5.65;;;;;;;21.36;51.06;94018.69;4979631;28;20091;-76
2022/05/31 07:24:24;;;;;;;9.50;5.57;;;;;;;21.57;51.35;94012.66;4983259;28;20026;-76
2022/05/31 07:26:50;;;;;;;8.02;4.70;;;;;;;21.39;50.92;94007.13;4981982;28;20109;-76
2022/05/31 07:29:16;;;;;;;8.82;5.90;;;;;;;21.73;51.29;94010.44;4975099;28;20050;-76
2022/05/31 07:31:44;;;;;;;12.38;5.57;;;;;;;21.66;51.06;94015.03;4978381;28;20034;-76
2022/05/31 07:34:16;;;;;;;14.88;5.20;;;;;;;21.78;50.85;94006.59;4977990;28;20137;-76
2022/05/31 07:36:42;;;;;;;17.30;6.25;;;;;;;21.10;51.55;93966.72;4980126;28;20030;-76
2022/05/31 07:39:14;;;;;;;11.95;5.60;;;;;;;21.60;51.40;94022.75;4978728;28;20104;-76
2022/05/31 07:41:40;;;;;;;10.60;5.88;;;;;;;21.59;51.51;93993.34;4980184;28;20590;-76
2022/05/31 07:44:06;;;;;;;11.13;5.13;;;;;;;22.03;50.05;94023.75;4980009;28;20060;-75
2022/05/31 07:46:31;;;;;;;10.70;5.80;;;;;;;22.11;49.40;94013.72;4981012;28;20380;-74
2022/05/31 07:48:59;;;;;;;8.95;5.25;;;;;;;22.23;49.82;94016.91;4978560;28;20591;-76
2022/05/31 07:51:26;;;;;;;18.05;6.65;;;;;;;22.36;49.28;94013.81;4979646;28;20038;-76
2022/05/31 07:53:51;;;;;;;8.20;5.57;;;;;;;22.37;48.83;93999.13;4975396;28;20046;-76
2022/05/31 07:56:18;;;;;;;9.60;5.32;;;;;;;22.66;48.47;93996.09;4966157;28;20042;-75
2022/05/31 07:58:46;;;;;;;14.38;5.63;;;;;;;22.87;48.26;94000.03;4949250;28;20035;-76
2022/05/31 08:01:14;;;;;;;7.32;5.72;;;;;;;22.79;47.98;94004.63;4949499;28;20039;-77
2022/05/31 08:03:40;;;;;;;11.75;5.28;;;;;;;22.19;48.67;93993.63;4949303;28;20927;-75
2022/05/31 08:06:08;;;;;;;10.43;5.35;;;;;;;22.83;47.36;94004.66;4950739;28;20158;-76
2022/05/31 08:08:35;;;;;;;12.18;6.40;;;;;;;22.87;46.73;93995.38;4950561;28;20498;-76
2022/05/31 08:11:05;;;;;;;10.45;6.20;;;;;;;23.04;47.23;94000.03;4950164;28;20053;-76
2022/05/31 08:13:32;;;;;;;5.82;4.43;;;;;;;22.98;46.45;93990.72;4950240;28;20455;-76
2022/05/31 08:15:58;;;;;;;6.85;3.90;;;;;;;23.15;46.25;93984.53;4949095;28;20035;-75
2022/05/31 08:18:24;;;;;;;5.47;4.35;;;;;;;23.27;45.71;93991.47;4950179;28;20509;-76
2022/05/31 08:20:49;;;;;;;7.93;5.32;;;;;;;23.02;46.00;93986.09;4951761;28;20409;-76
2022/05/31 08:23:15;;;;;;;9.73;5.10;;;;;;;22.75;47.38;94001.13;4951617;28;20089;-76
2022/05/31 08:25:40;;;;;;;8.50;4.95;;;;;;;22.24;47.71;93987.88;4949954;28;20141;-76
2022/05/31 08:28:06;;;;;;;6.65;4.43;;;;;;;22.70;47.30;93998.81;4948382;28;20045;-77
2022/05/31 08:30:32;;;;;;;8.55;4.60;;;;;;;22.75;47.71;93993.00;4955840;28;20097;-76
2022/05/31 08:32:58;;;;;;;8.00;3.90;;;;;;;22.65;46.07;93977.50;4947488;28;20594;-76
2022/05/31 08:35:23;;;;;;;5.78;3.80;;;;;;;22.93;46.38;93972.13;4946795;28;20046;-75
2022/05/31 08:37:49;;;;;;;11.52;4.60;;;;;;;22.80;45.54;93970.94;4963722;28;20039;-76
2022/05/31 08:40:14;;;;;;;6.18;3.97;;;;;;;22.93;45.66;93988.38;4950555;28;20035;-76
2022/05/31 08:42:48;;;;;;;8.02;4.43;;;;;;;23.00;45.84;93985.69;4971499;28;20436;-76
2022/05/31 08:45:37;;;;;;;10.05;4.97;;;;;;;23.09;45.68;93975.22;4977259;28;20117;-77
2022/05/31 08:48:06;;;;;;;14.82;4.60;;;;;;;22.90;45.87;93956.63;4965794;28;20106;-75
2022/05/31 08:56:56;;;;;;;7.00;3.88;;;;;;;22.70;47.54;93974.41;4956391;28;20050;-77
2022/05/31 08:59:39;;;;;;;9.25;4.07;;;;;;;22.39;47.94;93980.56;4959024;28;20046;-76
2022/05/31 09:02:13;;;;;;;5.55;4.07;;;;;;;22.48;48.12;93978.25;4959516;28;20026;-76
2022/05/31 09:04:43;;;;;;;7.85;3.80;;;;;;;22.46;47.67;93975.16;4958586;28;20029;-76
2022/05/31 09:07:36;;;;;;;8.65;3.92;;;;;;;22.76;47.31;93977.50;4958840;28;20912;-76
2022/05/31 09:10:17;;;;;;;7.82;4.18;;;;;;;22.33;47.60;93953.06;4959392;28;20530;-76
2022/05/31 09:13:03;;;;;;;10.88;4.40;;;;;;;22.62;47.60;93976.34;4960110;28;20130;-76
2022/05/31 09:15:44;;;;;;;11.20;4.35;;;;;;;23.04;46.66;93977.53;4959338;28;20035;-76
2022/05/31 09:18:29;;;;;;;9.80;6.72;;;;;;;22.95;45.85;93958.97;4957015;28;20592;-76
2022/05/31 09:21:04;;;;;;;7.38;5.05;;;;;;;22.96;45.79;93970.59;4959436;28;20129;-76
2022/05/31 09:23:35;;;;;;;;;;;;;;;23.13;45.78;93965.13;4960210;28;20050;-75
2022/05/31 09:26:26;;;;;;;5.88;3.75;;;;;;;23.07;46.34;93963.97;4977027;28;19918;-77
2022/05/31 09:29:13;;;;;;;8.23;4.25;;;;;;;22.88;45.22;93958.94;4964369;28;20054;-76
2022/05/31 09:31:53;;;;;;;5.97;3.72;;;;;;;22.91;44.86;93968.25;4966284;28;20382;-75
2022/05/31 09:34:43;;;;;;;7.82;4.40;;;;;;;22.78;44.70;93975.94;4979616;28;20132;-77
2022/05/31 09:37:30;;;;;;;8.05;4.00;;;;;;;22.89;44.52;93944.22;4975599;28;20396;-77
2022/05/31 09:40:13;;;;;;;6.72;3.15;;;;;;;23.46;43.62;93957.75;4982101;28;20115;-76
2022/05/31 09:42:46;;;;;;;6.45;3.30;;;;;;;23.54;44.65;93943.00;4979796;28;20049;-77
2022/05/31 09:45:17;;;;;;;4.40;3.60;;;;;;;23.34;43.60;93950.78;4985560;28;20046;-76
2022/05/31 09:47:43;;;;;;;9.85;4.47;;;;;;;23.42;42.12;93954.25;4988276;28;20129;-77
2022/05/31 09:50:08;;;;;;;5.40;3.63;;;;;;;23.85;41.79;93960.38;4989071;28;20022;-76
2022/05/31 09:52:47;;;;;;;8.38;4.43;;;;;;;23.55;41.55;93952.72;4988011;28;20137;-76
2022/05/31 09:58:21;;;;;;;4.55;3.55;;;;;;;23.72;43.00;93941.00;4984304;28;20837;-76
2022/05/31 10:01:11;;;;;;;4.13;3.05;;;;;;;23.87;42.05;93953.38;4983612;28;20072;-76
2022/05/31 10:03:38;;;;;;;5.57;4.45;;;;;;;23.96;42.08;93953.72;4987967;28;20049;-76
2022/05/31 10:06:20;;;;;;;6.18;3.75;;;;;;;23.54;42.36;93953.88;4985312;28;20038;-76
2022/05/31 10:08:51;;;;;;;6.03;3.40;;;;;;;23.40;42.35;93951.94;4983787;28;20031;-76
2022/05/31 10:11:30;;;;;;;10.00;4.43;;;;;;;23.79;42.41;93954.56;4986872;28;20034;-76
2022/05/31 10:14:02;;;;;;;12.77;3.60;;;;;;;23.99;41.66;93958.38;4981973;28;20433;-77
2022/05/31 10:16:35;;;;;;;8.70;4.80;;;;;;;24.10;42.10;93946.69;4985218;28;20603;-76
2022/05/31 10:19:08;;;;;;;7.47;5.07;;;;;;;23.74;41.80;93930.53;4981553;28;20461;-76
2022/05/31 10:21:41;;;;;;;10.40;5.53;;;;;;;24.02;42.33;93943.22;4982106;28;20122;-75
2022/05/31 10:24:17;;;;;;;14.65;8.05;;;;;;;24.10;41.24;93946.69;4981605;28;20058;-74
2022/05/31 10:26:45;;;;;;;17.55;5.50;;;;;;;23.84;41.96;93921.56;4981601;28;20049;-76
2022/05/31 10:29:16;;;;;;;4.65;3.50;;;;;;;23.71;41.12;93933.28;4977760;28;20127;-76
2022/05/31 10:31:46;;;;;;;6.05;2.80;;;;;;;23.83;41.84;93933.59;4997243;28;20065;-76
2022/05/31 10:34:34;;;;;;;5.07;3.10;;;;;;;24.10;43.02;93931.13;4977637;28;20042;-76
2022/05/31 10:37:02;;;;;;;5.05;3.47;;;;;;;24.40;40.99;93938.78;4976394;28;20097;-76
2022/05/31 10:39:32;;;;;;;10.35;3.92;;;;;;;24.09;41.62;93928.84;4974733;28;20034;-76
2022/05/31 10:42:02;;;;;;;5.03;3.38;;;;;;;23.97;40.24;93925.38;4976576;28;20378;-76
2022/05/31 10:44:38;;;;;;;3.72;2.90;;;;;;;24.26;42.07;93919.84;4977663;28;20128;-76
2022/05/31 10:47:15;;;;;;;4.55;3.30;;;;;;;23.58;42.29;93924.75;4976251;28;20112;-77
2022/05/31 10:49:43;;;;;;;5.78;3.20;;;;;;;23.75;41.24;93912.31;4975498;28;20038;-76
2022/05/31 10:52:17;;;;;;;8.50;4.03;;;;;;;23.87;44.75;93906.41;4983308;28;20045;-76
2022/05/31 10:54:58;;;;;;;8.15;2.63;;;;;;;24.18;42.10;93918.34;4975662;28;20682;-76
2022/05/31 10:57:29;;;;;;;5.28;3.35;;;;;;;23.95;41.86;93911.41;4973684;28;20054;-76
2022/05/31 11:00:08;;;;;;;4.53;2.53;;;;;;;23.87;41.37;93909.91;4974010;28;20069;-77
2022/05/31 11:03:24;;;;;;;5.72;3.28;;;;;;;24.07;42.56;93904.00;4969339;28;20099;-77
2022/05/31 11:06:05;;;;;;;8.38;3.38;;;;;;;24.41;41.78;93899.56;4965767;28;20046;-76
2022/05/31 11:12:04;;;;;;;5.03;2.50;;;;;;;24.28;40.42;93884.91;4960540;28;20042;-76
2022/05/31 11:15:02;;;;;;;5.85;3.33;;;;;;;24.14;42.05;93884.97;4964032;28;20503;-76
2022/05/31 11:17:46;;;;;;;4.15;2.40;;;;;;;23.98;40.38;93878.06;4951260;28;20076;-76
2022/05/31 11:20:24;;;;;;;4.28;2.55;;;;;;;24.08;40.98;93870.22;4954813;28;20111;-76
2022/05/31 11:22:59;;;;;;;5.20;2.65;;;;;;;24.31;39.58;93873.22;4948839;28;20450;-76
2022/05/31 11:25:24;;;;;;;4.20;2.55;;;;;;;24.31;40.00;93865.84;4978946;28;20521;-77
2022/05/31 11:28:01;;;;;;;6.18;3.38;;;;;;;23.96;39.84;93833.44;4983125;28;20077;-76
2022/05/31 11:30:46;;;;;;;16.45;4.47;;;;;;;24.27;40.32;93856.16;4981994;28;20046;-77
2022/05/31 11:33:38;;;;;;;6.75;3.05;;;;;;;24.37;40.11;93860.75;4984458;28;20519;-76
2022/05/31 11:36:18;;;;;;;5.13;2.60;;;;;;;24.09;41.29;93858.19;4977520;28;20347;-77
2022/05/31 11:39:21;;;;;;;4.55;2.70;;;;;;;24.23;40.30;93861.63;4965517;28;20034;-76
2022/05/31 11:42:34;;;;;;;6.75;3.28;;;;;;;24.09;38.32;93845.41;4982823;28;20125;-77
2022/05/31 11:44:59;;;;;;;4.38;2.30;;;;;;;24.68;37.22;93854.31;4966603;28;20042;-76
2022/05/31 11:47:47;;;;;;;3.75;2.40;;;;;;;24.87;39.25;93850.28;4952814;28;20055;-76
2022/05/31 11:50:24;;;;;;;3.75;2.17;;;;;;;24.95;36.67;93857.19;4949226;28;20039;-77
2022/05/31 11:53:14;;;;;;;4.97;2.10;;;;;;;24.82;37.85;93854.22;4967804;28;20054;-76
2022/05/31 11:55:50;;;;;;;4.28;2.25;;;;;;;24.75;38.07;93856.19;4977916;28;20391;-76
2022/05/31 11:58:22;;;;;;;4.63;2.05;;;;;;;24.98;39.77;93850.19;4972890;28;20067;-76
2022/05/31 12:01:01;;;;;;;32.78;15.85;;;;;;;25.28;38.42;93853.72;4981558;28;20038;-76
2022/05/31 12:04:19;;;;;;;12.38;6.50;;;;;;;25.40;36.85;93844.31;4977004;28;20046;-77
2022/05/31 12:06:51;;;;;;;24.67;12.00;;;;;;;25.42;36.80;93830.31;4961798;28;20061;-77
2022/05/31 12:09:20;;;;;;;20.75;10.13;;;;;;;25.48;36.25;93856.66;4981141;28;20846;-77
2022/05/31 12:12:01;;;;;;;17.02;6.78;;;;;;;25.37;35.94;93836.94;4978309;28;20508;-76